sensor_id;sensor_type;location;lat;lon;timestamp;pressure;altitude;pressure_sealevel;temperature;humidity
59787;BME280;45672;51.612;5.536;2022-08-03T00:01:22;101347.41;;;21.68;76.14
59787;BME280;45672;51.612;5.536;2022-08-03T00:03:48;101350.34;;;21.60;75.80
59787;BME280;45672;51.612;5.536;2022-08-03T00:06:13;101352.47;;;21.58;76.44
59787;BME280;45672;51.612;5.536;2022-08-03T00:08:38;101344.16;;;21.53;76.61
59787;BME280;45672;51.612;5.536;2022-08-03T00:11:03;101346.22;;;21.51;76.46
59787;BME280;45672;51.612;5.536;2022-08-03T00:13:31;101345.59;;;21.49;76.76
59787;BME280;45672;51.612;5.536;2022-08-03T00:15:56;101347.06;;;21.45;77.03
59787;BME280;45672;51.612;5.536;2022-08-03T00:18:21;101346.09;;;21.39;77.15
59787;BME280;45672;51.612;5.536;2022-08-03T00:20:47;101352.97;;;21.35;77.86
59787;BME280;45672;51.612;5.536;2022-08-03T00:23:12;101349.63;;;21.33;77.88
59787;BME280;45672;51.612;5.536;2022-08-03T00:25:38;101341.34;;;21.28;77.88
59787;BME280;45672;51.612;5.536;2022-08-03T00:28:04;101345.28;;;21.25;78.03
59787;BME280;45672;51.612;5.536;2022-08-03T00:30:31;101338.88;;;21.20;78.33
59787;BME280;45672;51.612;5.536;2022-08-03T00:32:57;101343.44;;;21.19;78.44
59787;BME280;45672;51.612;5.536;2022-08-03T00:35:23;101338.88;;;21.13;79.14
59787;BME280;45672;51.612;5.536;2022-08-03T00:37:49;101343.03;;;21.15;79.02
59787;BME280;45672;51.612;5.536;2022-08-03T00:40:15;101344.28;;;21.13;78.80
59787;BME280;45672;51.612;5.536;2022-08-03T00:42:52;101338.06;;;21.12;78.42
59787;BME280;45672;51.612;5.536;2022-08-03T00:45:19;101339.75;;;21.07;79.25
59787;BME280;45672;51.612;5.536;2022-08-03T00:47:45;101336.41;;;21.05;79.28
59787;BME280;45672;51.612;5.536;2022-08-03T00:50:11;101331.63;;;21.00;79.75
59787;BME280;45672;51.612;5.536;2022-08-03T00:52:36;101326.66;;;20.97;79.80
59787;BME280;45672;51.612;5.536;2022-08-03T00:55:03;101330.41;;;20.96;80.16
59787;BME280;45672;51.612;5.536;2022-08-03T00:57:29;101334.97;;;20.95;79.78
59787;BME280;45672;51.612;5.536;2022-08-03T00:59:56;101334.13;;;20.95;80.25
59787;BME280;45672;51.612;5.536;2022-08-03T01:02:21;101328.72;;;20.95;80.13
59787;BME280;45672;51.612;5.536;2022-08-03T01:04:47;101332.28;;;20.95;80.23
59787;BME280;45672;51.612;5.536;2022-08-03T01:07:20;101326.44;;;20.92;80.29
59787;BME280;45672;51.612;5.536;2022-08-03T01:09:56;101322.28;;;20.89;80.51
59787;BME280;45672;51.612;5.536;2022-08-03T01:12:31;101326.88;;;20.89;80.45
59787;BME280;45672;51.612;5.536;2022-08-03T01:15:07;101319.78;;;20.88;80.39
59787;BME280;45672;51.612;5.536;2022-08-03T01:17:46;101319.41;;;20.84;80.92
59787;BME280;45672;51.612;5.536;2022-08-03T01:20:14;101311.50;;;20.82;80.51
59787;BME280;45672;51.612;5.536;2022-08-03T01:31:17;101315.47;;;20.73;80.89
59787;BME280;45672;51.612;5.536;2022-08-03T01:33:46;101312.59;;;20.68;81.13
59787;BME280;45672;51.612;5.536;2022-08-03T01:36:18;101318.78;;;20.62;81.41
59787;BME280;45672;51.612;5.536;2022-08-03T01:38:50;101324.63;;;20.72;77.85
59787;BME280;45672;51.612;5.536;2022-08-03T01:41:28;101321.50;;;20.62;80.74
59787;BME280;45672;51.612;5.536;2022-08-03T01:43:56;101310.28;;;20.58;81.62
59787;BME280;45672;51.612;5.536;2022-08-03T01:46:24;101315.03;;;20.56;81.91
59787;BME280;45672;51.612;5.536;2022-08-03T01:48:50;101306.72;;;20.58;81.68
59787;BME280;45672;51.612;5.536;2022-08-03T01:51:18;101308.19;;;20.54;81.98
59787;BME280;45672;51.612;5.536;2022-08-03T01:53:44;101311.72;;;20.54;82.32
59787;BME280;45672;51.612;5.536;2022-08-03T01:56:11;101309.25;;;20.53;82.28
59787;BME280;45672;51.612;5.536;2022-08-03T01:58:39;101311.31;;;20.50;82.10
59787;BME280;45672;51.612;5.536;2022-08-03T02:01:06;101305.09;;;20.43;82.81
59787;BME280;45672;51.612;5.536;2022-08-03T02:03:36;101305.28;;;20.42;82.51
59787;BME280;45672;51.612;5.536;2022-08-03T02:06:02;101297.81;;;20.37;82.78
59787;BME280;45672;51.612;5.536;2022-08-03T02:08:29;101298.03;;;20.36;82.61
59787;BME280;45672;51.612;5.536;2022-08-03T02:10:57;101304.47;;;20.35;83.01
59787;BME280;45672;51.612;5.536;2022-08-03T02:13:23;101300.53;;;20.30;83.41
59787;BME280;45672;51.612;5.536;2022-08-03T02:15:49;101303.22;;;20.30;83.23
59787;BME280;45672;51.612;5.536;2022-08-03T02:18:17;101299.91;;;20.28;83.52
59787;BME280;45672;51.612;5.536;2022-08-03T02:20:44;101297.41;;;20.27;83.32
59787;BME280;45672;51.612;5.536;2022-08-03T02:23:10;101295.75;;;20.26;83.20
59787;BME280;45672;51.612;5.536;2022-08-03T02:25:42;101301.38;;;20.24;83.53
59787;BME280;45672;51.612;5.536;2022-08-03T02:28:16;101297.81;;;20.24;83.32
59787;BME280;45672;51.612;5.536;2022-08-03T02:30:44;101300.72;;;20.22;83.39
59787;BME280;45672;51.612;5.536;2022-08-03T02:33:17;101295.53;;;20.21;83.78
59787;BME280;45672;51.612;5.536;2022-08-03T02:35:43;101298.66;;;20.18;83.78
59787;BME280;45672;51.612;5.536;2022-08-03T02:38:12;101293.47;;;20.16;84.10
59787;BME280;45672;51.612;5.536;2022-08-03T02:40:40;101286.38;;;20.15;84.06
59787;BME280;45672;51.612;5.536;2022-08-03T02:43:08;101282.88;;;20.14;84.20
59787;BME280;45672;51.612;5.536;2022-08-03T02:45:35;101290.97;;;20.14;84.43
59787;BME280;45672;51.612;5.536;2022-08-03T02:48:05;101282.66;;;20.16;84.34
59787;BME280;45672;51.612;5.536;2022-08-03T02:50:32;101287.22;;;20.15;84.29
59787;BME280;45672;51.612;5.536;2022-08-03T02:53:00;101283.06;;;20.13;84.47
59787;BME280;45672;51.612;5.536;2022-08-03T02:55:26;101282.22;;;20.12;84.29
59787;BME280;45672;51.612;5.536;2022-08-03T02:57:53;101279.94;;;20.09;84.56
59787;BME280;45672;51.612;5.536;2022-08-03T03:00:19;101270.78;;;20.04;84.44
59787;BME280;45672;51.612;5.536;2022-08-03T03:02:45;101282.44;;;20.04;84.62
59787;BME280;45672;51.612;5.536;2022-08-03T03:05:11;101281.59;;;20.04;84.58
59787;BME280;45672;51.612;5.536;2022-08-03T03:07:38;101291.78;;;20.02;84.75
59787;BME280;45672;51.612;5.536;2022-08-03T03:10:05;101282.22;;;19.99;84.67
59787;BME280;45672;51.612;5.536;2022-08-03T03:12:32;101284.31;;;19.97;85.39
59787;BME280;45672;51.612;5.536;2022-08-03T03:14:57;101280.97;;;19.95;85.10
59787;BME280;45672;51.612;5.536;2022-08-03T03:17:23;101280.97;;;19.95;85.46
59787;BME280;45672;51.612;5.536;2022-08-03T03:19:50;101287.19;;;19.95;85.19
59787;BME280;45672;51.612;5.536;2022-08-03T03:22:16;101292.81;;;19.94;85.55
59787;BME280;45672;51.612;5.536;2022-08-03T03:24:42;101290.53;;;19.91;85.49
59787;BME280;45672;51.612;5.536;2022-08-03T03:27:08;101282.00;;;19.94;85.25
59787;BME280;45672;51.612;5.536;2022-08-03T03:29:34;101290.53;;;19.91;85.66
59787;BME280;45672;51.612;5.536;2022-08-03T03:32:00;101283.44;;;19.90;85.53
59787;BME280;45672;51.612;5.536;2022-08-03T03:34:28;101283.44;;;19.90;85.42
59787;BME280;45672;51.612;5.536;2022-08-03T03:36:53;101281.81;;;19.89;85.69
59787;BME280;45672;51.612;5.536;2022-08-03T03:39:19;101282.84;;;19.88;85.85
59787;BME280;45672;51.612;5.536;2022-08-03T03:41:44;101280.75;;;19.90;85.51
59787;BME280;45672;51.612;5.536;2022-08-03T03:44:10;101277.22;;;19.89;85.47
59787;BME280;45672;51.612;5.536;2022-08-03T03:46:36;101277.44;;;19.88;85.50
59787;BME280;45672;51.612;5.536;2022-08-03T03:49:04;101278.69;;;19.85;85.74
59787;BME280;45672;51.612;5.536;2022-08-03T03:51:30;101279.31;;;19.87;85.30
59787;BME280;45672;51.612;5.536;2022-08-03T03:53:56;101284.72;;;19.87;85.33
59787;BME280;45672;51.612;5.536;2022-08-03T03:56:23;101280.34;;;19.86;85.27
59787;BME280;45672;51.612;5.536;2022-08-03T03:58:48;101275.38;;;19.83;85.35
59787;BME280;45672;51.612;5.536;2022-08-03T04:01:14;101273.22;;;19.78;85.26
59787;BME280;45672;51.612;5.536;2022-08-03T04:03:39;101274.50;;;19.76;85.32
59787;BME280;45672;51.612;5.536;2022-08-03T04:06:05;101272.00;;;19.74;85.36
59787;BME280;45672;51.612;5.536;2022-08-03T04:08:48;101268.66;;;19.72;85.01
59787;BME280;45672;51.612;5.536;2022-08-03T04:11:50;101275.50;;;19.68;85.42
59787;BME280;45672;51.612;5.536;2022-08-03T04:14:25;101272.81;;;19.68;85.78
59787;BME280;45672;51.612;5.536;2022-08-03T04:17:01;101274.69;;;19.68;85.96
59787;BME280;45672;51.612;5.536;2022-08-03T04:21:59;101289.00;;;19.68;85.58
59787;BME280;45672;51.612;5.536;2022-08-03T04:24:54;101284.88;;;19.72;84.53
59787;BME280;45672;51.612;5.536;2022-08-03T04:27:24;101285.28;;;19.69;85.66
59787;BME280;45672;51.612;5.536;2022-08-03T04:29:53;101280.28;;;19.66;85.73
59787;BME280;45672;51.612;5.536;2022-08-03T04:32:20;101282.78;;;19.68;85.54
59787;BME280;45672;51.612;5.536;2022-08-03T04:34:49;101280.28;;;19.66;85.30
59787;BME280;45672;51.612;5.536;2022-08-03T04:37:42;101284.47;;;19.69;85.30
59787;BME280;45672;51.612;5.536;2022-08-03T04:40:14;101280.28;;;19.66;85.23
59787;BME280;45672;51.612;5.536;2022-08-03T04:42:40;101281.56;;;19.70;85.28
59787;BME280;45672;51.612;5.536;2022-08-03T04:45:07;101282.78;;;19.68;85.30
59787;BME280;45672;51.612;5.536;2022-08-03T04:47:36;101282.56;;;19.69;85.11
59787;BME280;45672;51.612;5.536;2022-08-03T04:50:02;101290.25;;;19.72;85.05
59787;BME280;45672;51.612;5.536;2022-08-03T04:52:29;101290.25;;;19.72;85.04
59787;BME280;45672;51.612;5.536;2022-08-03T04:54:54;101297.13;;;19.75;85.21
59787;BME280;45672;51.612;5.536;2022-08-03T04:57:20;101294.84;;;19.78;84.61
59787;BME280;45672;51.612;5.536;2022-08-03T04:59:45;101298.63;;;19.84;84.31
59787;BME280;45672;51.612;5.536;2022-08-03T05:02:13;101296.75;;;19.85;84.45
59787;BME280;45672;51.612;5.536;2022-08-03T05:04:40;101301.94;;;19.86;84.25
59787;BME280;45672;51.612;5.536;2022-08-03T05:07:10;101301.94;;;19.86;84.53
59787;BME280;45672;51.612;5.536;2022-08-03T05:09:35;101307.16;;;19.88;84.53
59787;BME280;45672;51.612;5.536;2022-08-03T05:12:02;101307.97;;;19.88;84.20
59787;BME280;45672;51.612;5.536;2022-08-03T05:14:28;101312.13;;;19.91;84.16
59787;BME280;45672;51.612;5.536;2022-08-03T05:16:53;101316.50;;;19.92;83.97
59787;BME280;45672;51.612;5.536;2022-08-03T05:19:18;101317.53;;;19.91;84.23
59787;BME280;45672;51.612;5.536;2022-08-03T05:21:44;101318.19;;;19.93;84.29
59787;BME280;45672;51.612;5.536;2022-08-03T05:24:09;101325.00;;;19.95;83.74
59787;BME280;45672;51.612;5.536;2022-08-03T05:26:35;101319.00;;;19.93;83.68
59787;BME280;45672;51.612;5.536;2022-08-03T05:29:00;101311.09;;;19.92;83.98
59787;BME280;45672;51.612;5.536;2022-08-03T05:31:28;101312.78;;;19.93;84.36
59787;BME280;45672;51.612;5.536;2022-08-03T05:33:53;101318.59;;;19.96;83.65
59787;BME280;45672;51.612;5.536;2022-08-03T05:36:18;101319.84;;;20.01;83.95
59787;BME280;45672;51.612;5.536;2022-08-03T05:38:44;101320.66;;;20.08;83.44
59787;BME280;45672;51.612;5.536;2022-08-03T05:41:09;101326.09;;;20.14;83.33
59787;BME280;45672;51.612;5.536;2022-08-03T05:43:34;101325.88;;;20.23;82.69
59787;BME280;45672;51.612;5.536;2022-08-03T05:46:00;101328.34;;;20.31;82.16
59787;BME280;45672;51.612;5.536;2022-08-03T05:48:25;101333.56;;;20.39;82.10
59787;BME280;45672;51.612;5.536;2022-08-03T05:50:50;101328.97;;;20.46;81.83
59787;BME280;45672;51.612;5.536;2022-08-03T05:53:16;101334.41;;;20.53;81.45
59787;BME280;45672;51.612;5.536;2022-08-03T05:55:41;101330.63;;;20.61;81.46
59787;BME280;45672;51.612;5.536;2022-08-03T05:58:06;101333.53;;;20.66;80.54
59787;BME280;45672;51.612;5.536;2022-08-03T06:00:31;101335.25;;;20.67;80.41
59787;BME280;45672;51.612;5.536;2022-08-03T06:02:57;101330.22;;;20.71;80.36
59787;BME280;45672;51.612;5.536;2022-08-03T06:05:22;101324.44;;;20.74;80.13
59787;BME280;45672;51.612;5.536;2022-08-03T06:07:51;101335.22;;;20.87;80.11
59787;BME280;45672;51.612;5.536;2022-08-03T06:10:16;101333.31;;;21.01;79.48
59787;BME280;45672;51.612;5.536;2022-08-03T06:12:41;101334.34;;;21.07;78.07
59787;BME280;45672;51.612;5.536;2022-08-03T06:15:09;101334.28;;;21.13;78.40
59787;BME280;45672;51.612;5.536;2022-08-03T06:17:43;101334.47;;;21.25;78.12
59787;BME280;45672;51.612;5.536;2022-08-03T06:20:09;101331.91;;;21.37;77.34
59787;BME280;45672;51.612;5.536;2022-08-03T06:22:34;101327.72;;;21.41;76.52
59787;BME280;45672;51.612;5.536;2022-08-03T06:24:59;101331.84;;;21.57;76.41
59787;BME280;45672;51.612;5.536;2022-08-03T06:27:25;101333.44;;;21.72;75.85
59787;BME280;45672;51.612;5.536;2022-08-03T06:29:50;101329.41;;;21.88;74.28
59787;BME280;45672;51.612;5.536;2022-08-03T06:32:16;101337.16;;;22.09;73.81
59787;BME280;45672;51.612;5.536;2022-08-03T06:34:41;101335.31;;;22.28;71.24
59787;BME280;45672;51.612;5.536;2022-08-03T06:37:06;101332.47;;;22.48;70.91
59787;BME280;45672;51.612;5.536;2022-08-03T06:39:31;101332.84;;;22.77;70.19
59787;BME280;45672;51.612;5.536;2022-08-03T06:41:57;101339.03;;;23.03;68.59
59787;BME280;45672;51.612;5.536;2022-08-03T06:44:22;101343.25;;;23.36;67.72
59787;BME280;45672;51.612;5.536;2022-08-03T06:46:48;101337.84;;;23.97;65.83
59787;BME280;45672;51.612;5.536;2022-08-03T06:49:13;101348.59;;;24.69;62.12
59787;BME280;45672;51.612;5.536;2022-08-03T06:51:38;101356.31;;;25.37;60.25
59787;BME280;45672;51.612;5.536;2022-08-03T06:54:03;101352.75;;;25.94;58.42
59787;BME280;45672;51.612;5.536;2022-08-03T06:56:29;101349.75;;;26.41;55.66
59787;BME280;45672;51.612;5.536;2022-08-03T06:58:54;101355.88;;;26.88;54.70
59787;BME280;45672;51.612;5.536;2022-08-03T07:01:19;101353.91;;;27.22;53.34
59787;BME280;45672;51.612;5.536;2022-08-03T07:03:44;101354.94;;;27.65;52.55
59787;BME280;45672;51.612;5.536;2022-08-03T07:06:10;101350.84;;;27.95;50.91
59787;BME280;45672;51.612;5.536;2022-08-03T07:08:35;101355.28;;;28.29;49.88
59787;BME280;45672;51.612;5.536;2022-08-03T07:11:01;101354.63;;;28.54;48.85
59787;BME280;45672;51.612;5.536;2022-08-03T07:13:26;101360.09;;;28.92;47.59
59787;BME280;45672;51.612;5.536;2022-08-03T07:15:52;101363.84;;;29.28;46.67
59787;BME280;45672;51.612;5.536;2022-08-03T07:18:19;101365.59;;;29.65;46.48
59787;BME280;45672;51.612;5.536;2022-08-03T07:20:44;101370.00;;;29.82;44.70
59787;BME280;45672;51.612;5.536;2022-08-03T07:23:10;101368.06;;;29.72;45.03
59787;BME280;45672;51.612;5.536;2022-08-03T07:25:35;101372.72;;;29.82;45.04
59787;BME280;45672;51.612;5.536;2022-08-03T07:28:01;101373.34;;;30.51;43.96
59787;BME280;45672;51.612;5.536;2022-08-03T07:30:26;101379.56;;;31.08;42.25
59787;BME280;45672;51.612;5.536;2022-08-03T07:32:51;101379.41;;;31.39;40.71
59787;BME280;45672;51.612;5.536;2022-08-03T07:35:17;101378.63;;;31.33;41.29
59787;BME280;45672;51.612;5.536;2022-08-03T07:37:42;101382.34;;;31.63;40.78
59787;BME280;45672;51.612;5.536;2022-08-03T07:40:07;101374.81;;;32.19;39.66
59787;BME280;45672;51.612;5.536;2022-08-03T07:42:33;101374.03;;;32.72;38.24
59787;BME280;45672;51.612;5.536;2022-08-03T07:44:58;101368.78;;;33.19;37.39
59787;BME280;45672;51.612;5.536;2022-08-03T07:47:27;101371.69;;;33.32;36.53
59787;BME280;45672;51.612;5.536;2022-08-03T07:49:53;101368.09;;;33.32;36.53
59787;BME280;45672;51.612;5.536;2022-08-03T07:52:19;101373.94;;;33.49;36.32
59787;BME280;45672;51.612;5.536;2022-08-03T07:55:04;101375.66;;;33.83;35.27
59787;BME280;45672;51.612;5.536;2022-08-03T07:57:30;101369.75;;;34.70;34.73
59787;BME280;45672;51.612;5.536;2022-08-03T07:59:56;101375.78;;;35.28;33.44
59787;BME280;45672;51.612;5.536;2022-08-03T08:02:21;101371.59;;;35.30;32.40
59787;BME280;45672;51.612;5.536;2022-08-03T08:04:46;101372.63;;;35.20;32.74
59787;BME280;45672;51.612;5.536;2022-08-03T08:07:11;101376.41;;;35.25;32.22
59787;BME280;45672;51.612;5.536;2022-08-03T08:09:37;101375.22;;;35.03;32.85
59787;BME280;45672;51.612;5.536;2022-08-03T08:12:03;101378.50;;;35.55;31.93
59787;BME280;45672;51.612;5.536;2022-08-03T08:14:28;101365.69;;;36.50;31.09
59787;BME280;45672;51.612;5.536;2022-08-03T08:16:54;101364.38;;;36.88;29.64
59787;BME280;45672;51.612;5.536;2022-08-03T08:19:19;101375.53;;;36.74;29.46
59787;BME280;45672;51.612;5.536;2022-08-03T08:21:44;101377.84;;;37.30;29.38
59787;BME280;45672;51.612;5.536;2022-08-03T08:24:10;101373.81;;;37.88;28.31
59787;BME280;45672;51.612;5.536;2022-08-03T08:26:35;101372.75;;;38.19;27.96
59787;BME280;45672;51.612;5.536;2022-08-03T08:29:01;101370.50;;;38.99;26.40
59787;BME280;45672;51.612;5.536;2022-08-03T08:31:27;101377.28;;;39.19;26.37
59787;BME280;45672;51.612;5.536;2022-08-03T08:33:53;101370.75;;;39.14;27.33
59787;BME280;45672;51.612;5.536;2022-08-03T08:36:18;101365.38;;;39.60;25.76
59787;BME280;45672;51.612;5.536;2022-08-03T08:38:44;101375.81;;;39.63;25.10
59787;BME280;45672;51.612;5.536;2022-08-03T08:41:13;101370.22;;;40.06;25.73
59787;BME280;45672;51.612;5.536;2022-08-03T08:43:39;101366.72;;;40.67;24.98
59787;BME280;45672;51.612;5.536;2022-08-03T08:46:06;101368.31;;;41.05;24.63
59787;BME280;45672;51.612;5.536;2022-08-03T08:48:39;101365.81;;;41.28;23.42
59787;BME280;45672;51.612;5.536;2022-08-03T08:51:07;101371.94;;;41.46;23.62
59787;BME280;45672;51.612;5.536;2022-08-03T08:53:35;101373.13;;;41.74;22.53
59787;BME280;45672;51.612;5.536;2022-08-03T08:56:01;101366.28;;;41.99;22.19
59787;BME280;45672;51.612;5.536;2022-08-03T08:58:29;101375.66;;;42.07;22.63
59787;BME280;45672;51.612;5.536;2022-08-03T09:00:58;101364.56;;;41.38;23.05
59787;BME280;45672;51.612;5.536;2022-08-03T09:03:24;101362.91;;;41.78;22.48
59787;BME280;45672;51.612;5.536;2022-08-03T09:05:49;101368.25;;;42.95;21.19
59787;BME280;45672;51.612;5.536;2022-08-03T09:08:15;101374.31;;;43.71;20.46
59787;BME280;45672;51.612;5.536;2022-08-03T09:10:41;101372.53;;;44.49;19.22
59787;BME280;45672;51.612;5.536;2022-08-03T09:13:06;101365.66;;;43.80;19.96
59787;BME280;45672;51.612;5.536;2022-08-03T09:15:32;101371.44;;;43.68;20.47
59787;BME280;45672;51.612;5.536;2022-08-03T09:17:59;101372.22;;;43.29;20.20
59787;BME280;45672;51.612;5.536;2022-08-03T09:20:27;101371.72;;;43.23;20.83
59787;BME280;45672;51.612;5.536;2022-08-03T09:25:32;101375.31;;;42.88;20.35
59787;BME280;45672;51.612;5.536;2022-08-03T09:28:16;101372.38;;;43.01;21.79
59787;BME280;45672;51.612;5.536;2022-08-03T09:30:45;101379.41;;;43.66;20.25
59787;BME280;45672;51.612;5.536;2022-08-03T09:33:22;101370.69;;;43.71;19.55
59787;BME280;45672;51.612;5.536;2022-08-03T09:35:48;101367.84;;;44.33;19.32
59787;BME280;45672;51.612;5.536;2022-08-03T09:38:15;101365.78;;;44.07;19.66
59787;BME280;45672;51.612;5.536;2022-08-03T09:40:42;101371.66;;;43.79;20.26
59787;BME280;45672;51.612;5.536;2022-08-03T09:43:08;101373.31;;;43.60;19.31
59787;BME280;45672;51.612;5.536;2022-08-03T09:45:35;101369.47;;;43.68;20.05
59787;BME280;45672;51.612;5.536;2022-08-03T09:48:21;101366.78;;;44.18;20.73
59787;BME280;45672;51.612;5.536;2022-08-03T09:50:58;101373.53;;;45.14;19.16
59787;BME280;45672;51.612;5.536;2022-08-03T09:53:24;101368.53;;;45.64;18.16
59787;BME280;45672;51.612;5.536;2022-08-03T09:55:51;101379.81;;;45.37;17.67
59787;BME280;45672;51.612;5.536;2022-08-03T09:58:19;101371.84;;;44.32;19.25
59787;BME280;45672;51.612;5.536;2022-08-03T10:00:57;101377.72;;;44.73;18.84
59787;BME280;45672;51.612;5.536;2022-08-03T10:03:23;101372.41;;;44.18;18.76
59787;BME280;45672;51.612;5.536;2022-08-03T10:05:49;101368.91;;;44.02;19.08
59787;BME280;45672;51.612;5.536;2022-08-03T10:08:15;101369.53;;;43.92;19.01
59787;BME280;45672;51.612;5.536;2022-08-03T10:10:42;101366.47;;;43.81;19.57
59787;BME280;45672;51.612;5.536;2022-08-03T10:13:10;101373.25;;;43.99;19.42
59787;BME280;45672;51.612;5.536;2022-08-03T10:15:38;101371.00;;;44.55;18.65
59787;BME280;45672;51.612;5.536;2022-08-03T10:18:03;101374.88;;;44.00;19.04
59787;BME280;45672;51.612;5.536;2022-08-03T10:20:30;101365.41;;;44.08;19.23
59787;BME280;45672;51.612;5.536;2022-08-03T10:22:56;101368.38;;;44.19;18.56
59787;BME280;45672;51.612;5.536;2022-08-03T10:25:23;101367.97;;;44.17;19.06
59787;BME280;45672;51.612;5.536;2022-08-03T10:27:50;101354.44;;;45.30;17.73
59787;BME280;45672;51.612;5.536;2022-08-03T10:30:16;101357.31;;;45.34;17.54
59787;BME280;45672;51.612;5.536;2022-08-03T10:32:47;101364.94;;;45.33;17.66
59787;BME280;45672;51.612;5.536;2022-08-03T10:35:18;101355.97;;;44.93;18.03
59787;BME280;45672;51.612;5.536;2022-08-03T10:37:49;101354.75;;;45.52;17.30
59787;BME280;45672;51.612;5.536;2022-08-03T10:40:17;101350.38;;;44.44;18.34
59787;BME280;45672;51.612;5.536;2022-08-03T10:42:46;101347.06;;;41.69;20.82
59787;BME280;45672;51.612;5.536;2022-08-03T10:45:33;101343.09;;;39.39;24.11
59787;BME280;45672;51.612;5.536;2022-08-03T10:48:00;101340.66;;;37.74;25.28
59787;BME280;45672;51.612;5.536;2022-08-03T10:50:26;101340.53;;;36.47;27.26
59787;BME280;45672;51.612;5.536;2022-08-03T10:55:35;101321.56;;;35.63;28.65
59787;BME280;45672;51.612;5.536;2022-08-03T11:01:08;101304.94;;;35.04;29.29
59787;BME280;45672;51.612;5.536;2022-08-03T11:06:21;101309.66;;;34.48;31.02
59787;BME280;45672;51.612;5.536;2022-08-03T11:08:49;101303.78;;;34.22;29.91
59787;BME280;45672;51.612;5.536;2022-08-03T11:11:37;101297.53;;;33.83;30.42
59787;BME280;45672;51.612;5.536;2022-08-03T11:14:06;101302.16;;;33.68;31.12
59787;BME280;45672;51.612;5.536;2022-08-03T11:17:05;101303.00;;;33.50;31.42
59787;BME280;45672;51.612;5.536;2022-08-03T11:19:45;101294.44;;;33.32;31.78
59787;BME280;45672;51.612;5.536;2022-08-03T11:22:10;101294.75;;;33.31;32.61
59787;BME280;45672;51.612;5.536;2022-08-03T11:35:26;101301.47;;;33.25;31.63
59787;BME280;45672;51.612;5.536;2022-08-03T11:40:50;101294.50;;;33.65;31.60
59787;BME280;45672;51.612;5.536;2022-08-03T11:46:08;101305.97;;;33.92;31.65
59787;BME280;45672;51.612;5.536;2022-08-03T11:48:42;101306.81;;;34.06;31.10
59787;BME280;45672;51.612;5.536;2022-08-03T11:53:44;101297.94;;;33.76;31.90
59787;BME280;45672;51.612;5.536;2022-08-03T11:56:12;101292.31;;;33.81;32.33
59787;BME280;45672;51.612;5.536;2022-08-03T11:58:45;101303.78;;;33.89;32.42
59787;BME280;45672;51.612;5.536;2022-08-03T12:01:11;101302.03;;;33.79;31.41
59787;BME280;45672;51.612;5.536;2022-08-03T12:03:37;101300.47;;;33.54;31.52
59787;BME280;45672;51.612;5.536;2022-08-03T12:06:08;101303.97;;;33.40;32.14
59787;BME280;45672;51.612;5.536;2022-08-03T12:08:33;101301.09;;;33.07;32.30
59787;BME280;45672;51.612;5.536;2022-08-03T12:11:01;101294.94;;;33.15;32.71
59787;BME280;45672;51.612;5.536;2022-08-03T12:13:44;101310.75;;;33.29;32.56
59787;BME280;45672;51.612;5.536;2022-08-03T12:16:20;101297.03;;;33.43;32.54
59787;BME280;45672;51.612;5.536;2022-08-03T12:18:59;101299.00;;;33.42;33.02
59787;BME280;45672;51.612;5.536;2022-08-03T12:21:26;101296.47;;;33.27;32.66
59787;BME280;45672;51.612;5.536;2022-08-03T12:23:59;101290.44;;;33.25;32.65
59787;BME280;45672;51.612;5.536;2022-08-03T12:26:26;101295.69;;;33.02;32.90
59787;BME280;45672;51.612;5.536;2022-08-03T12:28:51;101302.69;;;33.13;33.37
59787;BME280;45672;51.612;5.536;2022-08-03T12:31:17;101291.56;;;32.99;33.18
59787;BME280;45672;51.612;5.536;2022-08-03T12:34:01;101302.22;;;33.06;33.17
59787;BME280;45672;51.612;5.536;2022-08-03T12:36:30;101293.53;;;33.18;33.47
59787;BME280;45672;51.612;5.536;2022-08-03T12:38:59;101293.41;;;33.28;32.89
59787;BME280;45672;51.612;5.536;2022-08-03T12:41:32;101285.66;;;33.30;32.66
59787;BME280;45672;51.612;5.536;2022-08-03T12:43:59;101301.09;;;33.07;33.48
59787;BME280;45672;51.612;5.536;2022-08-03T12:46:30;101289.13;;;33.17;32.98
59787;BME280;45672;51.612;5.536;2022-08-03T12:49:06;101296.13;;;33.09;33.16
59787;BME280;45672;51.612;5.536;2022-08-03T12:51:36;101300.25;;;32.88;33.75
59787;BME280;45672;51.612;5.536;2022-08-03T12:54:03;101294.22;;;32.86;33.54
59787;BME280;45672;51.612;5.536;2022-08-03T12:56:29;101291.03;;;32.97;33.59
59787;BME280;45672;51.612;5.536;2022-08-03T12:58:54;101290.53;;;32.95;33.83
59787;BME280;45672;51.612;5.536;2022-08-03T13:01:20;101295.13;;;33.00;33.54
59787;BME280;45672;51.612;5.536;2022-08-03T13:03:49;101288.59;;;33.15;33.02
59787;BME280;45672;51.612;5.536;2022-08-03T13:06:17;101287.41;;;33.21;32.95
59787;BME280;45672;51.612;5.536;2022-08-03T13:08:43;101278.63;;;33.19;32.96
59787;BME280;45672;51.612;5.536;2022-08-03T13:11:25;101277.19;;;33.22;33.50
59787;BME280;45672;51.612;5.536;2022-08-03T13:13:52;101283.00;;;33.20;33.42
59787;BME280;45672;51.612;5.536;2022-08-03T13:16:17;101279.09;;;33.26;32.99
59787;BME280;45672;51.612;5.536;2022-08-03T13:18:43;101276.38;;;33.21;33.05
59787;BME280;45672;51.612;5.536;2022-08-03T13:21:12;101279.44;;;33.01;33.80
59787;BME280;45672;51.612;5.536;2022-08-03T13:23:38;101276.09;;;33.04;33.33
59787;BME280;45672;51.612;5.536;2022-08-03T13:26:03;101273.53;;;33.07;33.92
59787;BME280;45672;51.612;5.536;2022-08-03T13:28:29;101282.50;;;33.18;33.80
59787;BME280;45672;51.612;5.536;2022-08-03T13:30:54;101277.94;;;33.08;33.63
59787;BME280;45672;51.612;5.536;2022-08-03T13:33:19;101276.44;;;32.97;34.11
59787;BME280;45672;51.612;5.536;2022-08-03T13:35:45;101276.59;;;32.87;34.57